Current Conditions
Mostly Scattered
Clouds



Pressure
1016.22 (mb) - 30.01 (inHG)
Visibility

10.0 (mimiles) - 16.1 (km)
   Temperature
86  °F
30°C
70  °F
Dewpoint
59  %
 Humidity
   Wind Speed
6  mph
5  kts
10  km/h
2.7  m/s
   Wind Direction
 140°
South East
   Airport Data
KBHC
Location Baxley Municipal 5 mi (8.05 km)
Metar :KBHC 172155Z AUTO 14005G17KT 10SM SCT042 SCT055 BKN070 30/21 A3001 RMK AO2
Mon 17th June 17:55 pm
   Raw Metar Info
Raw METAR is the most common format in the world for the transmission of observational weather data. It is highly standardized through the International Civil Aviation Organization (ICAO), which allows it to be understood throughout most of the world.
   API Info
Data Provided by
https://www.checkwx.com/weather/KBHC
   © Info
CSS/SVG/PHP scripts were developed by weather34.com for use in the weather34 template © 2015-2019

Guide Info provided by Metar-Wikipedia